createdAt,value
2022-08-28T00:02:13.825Z,3.43
2022-08-28T00:04:44.400Z,3.47
2022-08-28T00:07:14.784Z,3.44
2022-08-28T00:09:45.032Z,3.49
2022-08-28T00:12:15.473Z,3.54
2022-08-28T00:14:45.572Z,3.55
2022-08-28T00:17:16.001Z,3.53
2022-08-28T00:19:46.380Z,3.52
2022-08-28T00:22:16.575Z,3.57
2022-08-28T00:24:46.861Z,3.58
2022-08-28T00:27:17.366Z,3.58
2022-08-28T00:29:47.718Z,3.61
2022-08-28T00:32:18.186Z,3.65
2022-08-28T00:34:48.315Z,3.63
2022-08-28T00:37:19.000Z,3.68
2022-08-28T00:39:49.376Z,3.68
2022-08-28T00:42:19.506Z,3.62
2022-08-28T00:44:50.185Z,3.69
2022-08-28T00:47:20.599Z,3.71
2022-08-28T00:49:51.020Z,3.75
2022-08-28T00:52:21.460Z,3.75
2022-08-28T00:54:58.540Z,3.73
2022-08-28T00:57:22.380Z,3.73
2022-08-28T00:59:52.926Z,3.78
2022-08-28T01:02:23.774Z,3.86
2022-08-28T01:04:53.879Z,3.9
2022-08-28T01:07:24.313Z,3.94
2022-08-28T01:09:54.717Z,3.91
2022-08-28T01:12:24.935Z,3.88
2022-08-28T01:14:55.212Z,3.93
2022-08-28T01:17:25.835Z,3.91
2022-08-28T01:19:56.080Z,3.86
2022-08-28T01:22:26.594Z,3.93
2022-08-28T01:24:57.267Z,3.94
2022-08-28T01:27:27.673Z,3.97
2022-08-28T01:29:57.768Z,3.9
2022-08-28T01:32:27.884Z,3.95
2022-08-28T01:34:58.089Z,3.96
2022-08-28T01:37:28.465Z,3.95
2022-08-28T01:39:58.894Z,3.94
2022-08-28T01:42:29.327Z,3.96
2022-08-28T01:44:59.732Z,4.01
2022-08-28T01:47:30.172Z,4
2022-08-28T01:50:00.578Z,4.02
2022-08-28T01:52:31.053Z,3.98
2022-08-28T01:55:01.565Z,4.01
2022-08-28T01:57:31.950Z,4
2022-08-28T02:00:02.344Z,4.01
2022-08-28T02:02:32.520Z,4.01
2022-08-28T02:05:03.070Z,4.01
2022-08-28T02:07:33.152Z,4.01
2022-08-28T02:10:03.496Z,3.98
2022-08-28T02:12:33.720Z,4.05
2022-08-28T02:15:04.100Z,4.02
2022-08-28T02:17:34.555Z,4.03
2022-08-28T02:20:04.999Z,4.06
2022-08-28T02:22:35.227Z,3.99
2022-08-28T02:25:05.589Z,4.05
2022-08-28T02:27:36.087Z,4.04
2022-08-28T02:30:06.508Z,4.04
2022-08-28T02:32:36.938Z,4.05
2022-08-28T02:35:10.974Z,4.05
2022-08-28T02:37:37.859Z,4.06
2022-08-28T02:40:08.323Z,4.1
2022-08-28T02:42:38.743Z,4.14
2022-08-28T02:45:09.157Z,4.08
2022-08-28T02:47:39.635Z,4.09
2022-08-28T02:50:10.052Z,4.1
2022-08-28T02:52:40.628Z,4.07
2022-08-28T02:55:10.951Z,4
2022-08-28T02:57:41.439Z,4.08
2022-08-28T03:00:11.863Z,4.08
2022-08-28T03:02:42.389Z,4.01
2022-08-28T03:05:12.757Z,4.06
2022-08-28T03:07:43.247Z,4.03
2022-08-28T03:10:13.667Z,4.08
2022-08-28T03:12:44.162Z,4.06
2022-08-28T03:15:14.573Z,4.08
2022-08-28T03:17:45.065Z,4.06
2022-08-28T03:20:15.479Z,4.12
2022-08-28T03:22:45.940Z,4.17
2022-08-28T03:25:16.377Z,4.12
2022-08-28T03:27:46.875Z,4.12
2022-08-28T03:30:17.304Z,4.17
2022-08-28T03:32:47.769Z,4.17
2022-08-28T03:35:17.852Z,4.18
2022-08-28T03:37:48.321Z,4.2
2022-08-28T03:40:18.822Z,4.16
2022-08-28T03:42:53.147Z,4.09
2022-08-28T03:45:19.381Z,4.18
2022-08-28T03:47:49.635Z,4.21
2022-08-28T03:50:20.019Z,4.11
2022-08-28T03:52:50.156Z,4.14
2022-08-28T03:55:20.603Z,4.1
2022-08-28T03:57:51.127Z,4.14
2022-08-28T04:00:21.538Z,4.18
2022-08-28T04:02:51.779Z,4.07
2022-08-28T04:05:22.195Z,4.15
2022-08-28T04:07:52.702Z,4.19
2022-08-28T04:10:23.146Z,4.21
2022-08-28T04:12:53.668Z,4.11
2022-08-28T04:15:23.836Z,4.23
2022-08-28T04:17:54.305Z,4.31
2022-08-28T04:20:24.741Z,4.36
2022-08-28T04:22:55.387Z,4.34
2022-08-28T04:25:25.691Z,4.34
2022-08-28T04:27:56.207Z,4.31
2022-08-28T04:30:26.616Z,4.32
2022-08-28T04:32:57.110Z,4.3
2022-08-28T04:35:27.196Z,4.31
2022-08-28T04:37:58.936Z,4.4
2022-08-28T04:40:28.159Z,4.27
2022-08-28T04:42:58.638Z,4.43
2022-08-28T04:45:29.124Z,4.4
2022-08-28T04:48:00.269Z,4.51
2022-08-28T04:50:30.039Z,4.4
2022-08-28T04:53:00.449Z,4.57
2022-08-28T04:55:53.720Z,4.5
2022-08-28T04:58:01.215Z,4.49
2022-08-28T05:00:31.666Z,4.39
2022-08-28T05:03:02.098Z,4.45
2022-08-28T05:05:32.575Z,4.54
2022-08-28T05:08:03.032Z,4.61
2022-08-28T05:10:33.717Z,4.51
2022-08-28T05:13:04.521Z,4.45
2022-08-28T05:15:34.708Z,4.52
2022-08-28T05:18:05.195Z,4.58
2022-08-28T05:20:35.610Z,4.51
2022-08-28T05:23:06.028Z,4.48
2022-08-28T05:25:36.217Z,4.45
2022-08-28T05:28:06.674Z,4.52
2022-08-28T05:30:37.032Z,4.49
2022-08-28T05:33:07.447Z,4.48
2022-08-28T05:35:37.912Z,4.52
2022-08-28T05:38:08.356Z,4.5
2022-08-28T05:40:38.892Z,4.28
2022-08-28T05:43:09.267Z,4.35
2022-08-28T05:45:39.777Z,4.4
2022-08-28T05:48:10.173Z,4.35
2022-08-28T05:50:43.068Z,4.49
2022-08-28T05:53:11.064Z,4.36
2022-08-28T05:55:41.265Z,4.39
2022-08-28T05:58:11.814Z,4.35
2022-08-28T06:00:42.168Z,4.43
2022-08-28T06:03:12.631Z,4.35
2022-08-28T06:05:43.052Z,4.38
2022-08-28T06:08:13.696Z,4.33
2022-08-28T06:10:43.947Z,4.31
2022-08-28T06:13:14.400Z,4.35
2022-08-28T06:15:44.894Z,4.28
2022-08-28T06:18:15.272Z,4.32
2022-08-28T06:20:45.510Z,4.34
2022-08-28T06:23:15.542Z,4.5
2022-08-28T06:25:46.006Z,4.31
2022-08-28T06:28:16.431Z,4.27
2022-08-28T06:31:17.946Z,4.32
2022-08-28T06:33:17.291Z,4.25
2022-08-28T06:35:47.758Z,4.24
2022-08-28T06:38:18.154Z,4.24
2022-08-28T06:40:48.808Z,4.37
2022-08-28T06:43:19.040Z,4.28
2022-08-28T06:45:49.257Z,4.29
2022-08-28T06:48:19.630Z,4.33
2022-08-28T06:50:50.093Z,4.15
2022-08-28T06:53:20.537Z,4.1
2022-08-28T06:55:50.971Z,4.14
2022-08-28T06:58:21.348Z,4.16
2022-08-28T07:00:59.587Z,4.12
2022-08-28T07:03:21.919Z,4.23
2022-08-28T07:05:52.368Z,4.2
2022-08-28T07:08:22.725Z,4.05
2022-08-28T07:10:53.192Z,3.84
2022-08-28T07:13:23.553Z,3.85
2022-08-28T07:15:54.027Z,3.83
2022-08-28T07:18:24.364Z,3.63
2022-08-28T07:20:54.525Z,3.72
2022-08-28T07:23:24.843Z,3.56
2022-08-28T07:25:55.242Z,3.57
2022-08-28T07:28:25.585Z,3.43
2022-08-28T07:30:56.071Z,3.33
2022-08-28T07:33:26.166Z,3.29
2022-08-28T07:35:56.455Z,3.35
2022-08-28T07:38:26.798Z,3.32
2022-08-28T07:40:57.215Z,3.3
2022-08-28T07:43:27.543Z,3.22
2022-08-28T07:45:57.975Z,3.19
2022-08-28T07:48:28.267Z,3.25
2022-08-28T07:50:58.618Z,3.03
2022-08-28T07:53:31.208Z,3.02
2022-08-28T07:55:59.360Z,2.99
2022-08-28T07:58:29.669Z,2.94
2022-08-28T08:01:00.018Z,2.88
2022-08-28T08:03:30.414Z,2.83
2022-08-28T08:06:00.723Z,2.86
2022-08-28T08:08:31.040Z,2.61
2022-08-28T08:11:01.433Z,2.64
2022-08-28T08:13:31.732Z,2.63
2022-08-28T08:16:02.195Z,2.7
2022-08-28T08:18:32.169Z,2.54
2022-08-28T08:21:02.631Z,2.64
2022-08-28T08:23:32.886Z,2.64
2022-08-28T08:26:03.001Z,2.56
2022-08-28T08:28:33.243Z,2.62
2022-08-28T08:31:03.668Z,2.5
2022-08-28T08:33:33.930Z,2.49
2022-08-28T08:36:04.295Z,2.49
2022-08-28T08:38:34.612Z,2.68
2022-08-28T08:41:04.986Z,2.52
2022-08-28T08:43:35.286Z,2.46
2022-08-28T08:46:05.869Z,2.48
2022-08-28T08:48:35.956Z,2.4
2022-08-28T08:51:06.298Z,2.4
2022-08-28T08:53:36.599Z,2.49
2022-08-28T08:56:06.959Z,2.35
2022-08-28T08:58:37.260Z,2.34
2022-08-28T09:01:07.666Z,2.43
2022-08-28T09:03:37.951Z,2.36
2022-08-28T09:06:07.975Z,2.44
2022-08-28T09:08:38.286Z,2.39
2022-08-28T09:11:08.639Z,2.46
2022-08-28T09:13:39.040Z,2.39
2022-08-28T09:16:09.503Z,2.32
2022-08-28T09:18:39.610Z,2.34
2022-08-28T09:21:09.954Z,2.4
2022-08-28T09:23:40.242Z,2.36
2022-08-28T09:26:10.606Z,2.46
2022-08-28T09:28:40.892Z,2.39
2022-08-28T09:31:11.204Z,2.32
2022-08-28T09:33:41.775Z,2.25
2022-08-28T09:36:11.816Z,2.21
2022-08-28T09:38:42.097Z,2.16
2022-08-28T09:41:12.448Z,2.14
2022-08-28T09:43:42.759Z,2.18
2022-08-28T09:46:13.100Z,2.09
2022-08-28T09:48:43.413Z,2.14
2022-08-28T09:51:13.664Z,2.18
2022-08-28T09:53:43.938Z,2.12
2022-08-28T09:56:14.290Z,2.12
2022-08-28T09:58:44.575Z,2.06
2022-08-28T10:01:14.938Z,2.08
2022-08-28T10:03:45.161Z,2.02
2022-08-28T10:06:15.474Z,2
2022-08-28T10:08:45.808Z,2.07
2022-08-28T10:11:16.080Z,2.05
2022-08-28T10:13:46.334Z,2.1
2022-08-28T10:16:16.772Z,2.03
2022-08-28T10:18:47.009Z,2.14
2022-08-28T10:21:17.384Z,2.08
2022-08-28T10:23:47.482Z,2.03
2022-08-28T10:26:17.798Z,1.99
2022-08-28T10:28:48.068Z,1.95
2022-08-28T10:31:18.448Z,1.89
2022-08-28T10:33:48.758Z,1.91
2022-08-28T10:36:33.797Z,1.95
2022-08-28T10:38:52.927Z,2.01
2022-08-28T10:41:19.538Z,2.01
2022-08-28T10:43:49.908Z,1.93
2022-08-28T10:46:24.151Z,1.99
2022-08-28T10:48:50.524Z,1.92
2022-08-28T10:51:20.818Z,1.9
2022-08-28T10:53:51.150Z,1.91
2022-08-28T10:56:21.365Z,1.79
2022-08-28T10:58:51.595Z,1.87
2022-08-28T11:01:21.920Z,1.92
2022-08-28T11:03:52.114Z,1.9
2022-08-28T11:06:22.399Z,1.85
2022-08-28T11:08:52.673Z,1.85
2022-08-28T11:11:22.950Z,1.87
2022-08-28T11:13:53.190Z,1.8
2022-08-28T11:16:23.548Z,1.78
2022-08-28T11:18:53.790Z,1.8
2022-08-28T11:21:23.991Z,1.79
2022-08-28T11:23:54.337Z,1.78
2022-08-28T11:26:24.540Z,1.84
2022-08-28T11:28:54.878Z,1.88
2022-08-28T11:31:29.132Z,1.85
2022-08-28T11:33:55.307Z,1.85
2022-08-28T11:36:25.560Z,1.86
2022-08-28T11:38:55.828Z,1.88
2022-08-28T11:41:26.115Z,1.85
2022-08-28T11:43:56.340Z,1.88
2022-08-28T11:46:26.630Z,1.82
2022-08-28T11:48:56.853Z,1.83
2022-08-28T11:51:27.158Z,1.88
2022-08-28T11:53:57.392Z,1.89
2022-08-28T11:56:31.303Z,2.06
2022-08-28T11:58:57.947Z,2.03
2022-08-28T12:01:28.208Z,2
2022-08-28T12:03:58.518Z,2.07
2022-08-28T12:06:28.747Z,1.95
2022-08-28T12:08:59.046Z,2.06
2022-08-28T12:11:29.395Z,2.06
2022-08-28T12:13:59.556Z,1.99
2022-08-28T12:16:29.927Z,1.96
2022-08-28T12:19:00.124Z,2.06
2022-08-28T12:21:30.429Z,1.99
2022-08-28T12:24:05.296Z,2.03
2022-08-28T12:26:31.011Z,1.97
2022-08-28T12:29:01.269Z,2.03
2022-08-28T12:31:31.584Z,2.03
2022-08-28T12:34:01.833Z,1.96
2022-08-28T12:36:32.311Z,1.99
2022-08-28T12:39:02.353Z,1.9
2022-08-28T12:41:32.669Z,1.94
2022-08-28T12:44:02.864Z,1.9
2022-08-28T12:46:33.221Z,1.92
2022-08-28T12:49:03.424Z,1.74
2022-08-28T12:51:33.773Z,1.76
2022-08-28T12:54:03.903Z,1.86
2022-08-28T12:56:34.200Z,1.83
2022-08-28T12:59:04.421Z,1.85
2022-08-28T13:01:34.803Z,1.87
2022-08-28T13:04:04.920Z,1.81
2022-08-28T13:06:35.188Z,1.86
2022-08-28T13:09:05.412Z,1.8
2022-08-28T13:11:35.699Z,1.83
2022-08-28T13:14:05.917Z,1.79
2022-08-28T13:16:36.283Z,1.75
2022-08-28T13:19:06.446Z,1.67
2022-08-28T13:21:36.728Z,1.77
2022-08-28T13:24:06.967Z,1.78
2022-08-28T13:26:37.261Z,1.66
2022-08-28T13:29:07.485Z,1.66
2022-08-28T13:31:37.803Z,1.7
2022-08-28T13:34:08.032Z,1.82
2022-08-28T13:36:38.308Z,1.72
2022-08-28T13:39:08.569Z,1.62
2022-08-28T13:41:38.911Z,1.57
2022-08-28T13:44:09.123Z,1.62
2022-08-28T13:46:39.361Z,1.71
2022-08-28T13:49:09.683Z,1.77
2022-08-28T13:51:39.903Z,1.8
2022-08-28T13:54:10.073Z,1.74
2022-08-28T13:56:40.363Z,1.72
2022-08-28T13:59:10.578Z,1.77
2022-08-28T14:01:42.254Z,1.71
2022-08-28T14:04:11.222Z,1.68
2022-08-28T14:06:41.397Z,1.65
2022-08-28T14:09:11.631Z,1.67
2022-08-28T14:11:41.917Z,1.67
2022-08-28T14:14:12.206Z,1.63
2022-08-28T14:16:42.547Z,1.68
2022-08-28T14:19:12.675Z,1.65
2022-08-28T14:21:43.249Z,1.68
2022-08-28T14:24:13.482Z,1.73
2022-08-28T14:26:43.853Z,1.7
2022-08-28T14:29:14.041Z,1.72
2022-08-28T14:31:44.371Z,1.74
2022-08-28T14:34:14.550Z,1.72
2022-08-28T14:36:44.858Z,1.77
2022-08-28T14:39:15.100Z,1.74
2022-08-28T14:41:45.430Z,1.68
2022-08-28T14:44:15.675Z,1.66
2022-08-28T14:46:45.935Z,1.64
2022-08-28T14:49:16.227Z,1.66
2022-08-28T14:51:46.407Z,1.63
2022-08-28T14:54:16.619Z,1.67
2022-08-28T14:56:46.929Z,1.76
2022-08-28T14:59:21.876Z,1.7
2022-08-28T15:01:47.378Z,1.65
2022-08-28T15:04:17.729Z,1.65
2022-08-28T15:06:47.880Z,1.65
2022-08-28T15:09:18.085Z,1.64
2022-08-28T15:11:48.468Z,1.65
2022-08-28T15:14:18.674Z,1.65
2022-08-28T15:16:48.935Z,1.63
2022-08-28T15:19:19.066Z,1.66
2022-08-28T15:21:49.338Z,1.66
2022-08-28T15:24:19.558Z,1.64
2022-08-28T15:26:49.912Z,1.66
2022-08-28T15:29:20.066Z,1.67
2022-08-28T15:31:50.442Z,1.77
2022-08-28T15:34:20.583Z,1.8
2022-08-28T15:36:54.571Z,1.79
2022-08-28T15:39:21.101Z,1.84
2022-08-28T15:41:51.427Z,1.84
2022-08-28T15:44:21.754Z,1.84
2022-08-28T15:46:51.964Z,1.98
2022-08-28T15:49:22.281Z,1.95
2022-08-28T15:51:52.490Z,1.91
2022-08-28T15:54:22.718Z,1.82
2022-08-28T15:56:53.904Z,1.87
2022-08-28T15:59:23.808Z,1.87
2022-08-28T16:01:53.585Z,1.94
2022-08-28T16:04:23.837Z,1.93
2022-08-28T16:06:58.527Z,1.95
2022-08-28T16:09:24.287Z,1.96
2022-08-28T16:11:54.666Z,1.99
2022-08-28T16:14:24.653Z,2.07
2022-08-28T16:16:55.261Z,2.13
2022-08-28T16:19:25.432Z,2.07
2022-08-28T16:21:55.704Z,2.1
2022-08-28T16:24:25.964Z,2
2022-08-28T16:26:56.262Z,2.15
2022-08-28T16:29:26.499Z,2.06
2022-08-28T16:31:56.997Z,2
2022-08-28T16:34:31.255Z,2.03
2022-08-28T16:36:57.346Z,2.06
2022-08-28T16:39:27.608Z,2.09
2022-08-28T16:41:57.979Z,2.1
2022-08-28T16:44:28.199Z,2.12
2022-08-28T16:46:58.644Z,2.09
2022-08-28T16:49:28.750Z,1.98
2022-08-28T16:51:59.040Z,2.01
2022-08-28T16:54:29.289Z,1.94
2022-08-28T16:56:59.620Z,1.86
2022-08-28T16:59:29.846Z,1.92
2022-08-28T17:02:00.229Z,1.92
2022-08-28T17:04:30.502Z,1.97
2022-08-28T17:07:00.826Z,2
2022-08-28T17:09:30.995Z,2.01
2022-08-28T17:12:01.318Z,2.06
2022-08-28T17:14:31.562Z,2.02
2022-08-28T17:17:01.890Z,2.04
2022-08-28T17:19:32.172Z,2.05
2022-08-28T17:22:02.543Z,2.04
2022-08-28T17:24:32.776Z,2
2022-08-28T17:27:05.704Z,2.07
2022-08-28T17:29:33.394Z,2.08
2022-08-28T17:32:03.725Z,2.08
2022-08-28T17:34:33.989Z,2.1
2022-08-28T17:37:04.397Z,2.06
2022-08-28T17:39:34.590Z,2.02
2022-08-28T17:42:04.930Z,2.09
2022-08-28T17:44:35.204Z,2.15
2022-08-28T17:47:05.548Z,1.99
2022-08-28T17:49:35.774Z,2.02
2022-08-28T17:52:06.109Z,2
2022-08-28T17:54:36.376Z,2.02
2022-08-28T17:57:06.687Z,2.02
2022-08-28T17:59:36.969Z,2.02
2022-08-28T18:02:07.324Z,2.08
2022-08-28T18:04:37.643Z,2.08
2022-08-28T18:07:07.892Z,2.05
2022-08-28T18:09:38.175Z,2.07
2022-08-28T18:12:12.260Z,2.06
2022-08-28T18:14:38.749Z,2.08
2022-08-28T18:17:09.186Z,2.13
2022-08-28T18:19:39.330Z,2.16
2022-08-28T18:22:09.644Z,2.14
2022-08-28T18:24:39.899Z,2.15
2022-08-28T18:27:10.240Z,2.17
2022-08-28T18:29:40.470Z,2.18
2022-08-28T18:32:10.792Z,2.17
2022-08-28T18:34:41.051Z,2.08
2022-08-28T18:37:11.351Z,2.11
2022-08-28T18:39:42.263Z,2.13
2022-08-28T18:42:12.010Z,2.14
2022-08-28T18:44:42.228Z,2.17
2022-08-28T18:47:12.551Z,2.18
2022-08-28T18:49:42.829Z,2.16
2022-08-28T18:52:13.168Z,2.19
2022-08-28T18:54:43.472Z,2.24
2022-08-28T18:57:13.814Z,2.21
2022-08-28T18:59:44.078Z,2.28
2022-08-28T19:02:14.534Z,2.29
2022-08-28T19:04:44.701Z,2.28
2022-08-28T19:07:15.023Z,2.37
2022-08-28T19:09:45.298Z,2.32
2022-08-28T19:12:15.665Z,2.36
2022-08-28T19:14:45.952Z,2.32
2022-08-28T19:17:20.912Z,2.34
2022-08-28T19:19:46.584Z,2.34
2022-08-28T19:22:16.921Z,2.37
2022-08-28T19:24:47.219Z,2.4
2022-08-28T19:27:17.584Z,2.4
2022-08-28T19:29:47.871Z,2.49
2022-08-28T19:32:18.189Z,2.42
2022-08-28T19:34:48.491Z,2.53
2022-08-28T19:37:18.857Z,2.58
2022-08-28T19:39:56.324Z,2.61
2022-08-28T19:42:19.462Z,2.59
2022-08-28T19:44:51.220Z,2.59
2022-08-28T19:47:20.086Z,2.58
2022-08-28T19:49:50.370Z,2.55
2022-08-28T19:52:20.707Z,2.58
2022-08-28T19:54:51.014Z,2.61
2022-08-28T19:57:21.301Z,2.5
2022-08-28T19:59:51.556Z,2.5
2022-08-28T20:02:21.937Z,2.52
2022-08-28T20:04:52.192Z,2.5
2022-08-28T20:07:22.537Z,2.55
2022-08-28T20:09:52.838Z,2.66
2022-08-28T20:12:23.182Z,2.62
2022-08-28T20:14:53.466Z,2.63
2022-08-28T20:17:23.797Z,2.7
2022-08-28T20:19:54.093Z,2.67
2022-08-28T20:22:24.434Z,2.67
2022-08-28T20:24:54.737Z,2.67
2022-08-28T20:27:25.084Z,2.7
2022-08-28T20:29:55.431Z,2.73
2022-08-28T20:32:25.702Z,2.73
2022-08-28T20:34:55.972Z,2.76
2022-08-28T20:37:26.319Z,2.73
2022-08-28T20:39:56.674Z,2.79
2022-08-28T20:42:26.982Z,2.82
2022-08-28T20:44:57.244Z,2.79
2022-08-28T20:47:27.577Z,2.86
2022-08-28T20:49:57.874Z,2.86
2022-08-28T20:52:28.206Z,2.83
2022-08-28T20:54:58.503Z,2.86
2022-08-28T20:57:28.848Z,2.86
2022-08-28T21:00:03.390Z,2.9
2022-08-28T21:02:29.461Z,2.9
2022-08-28T21:05:00.106Z,2.9
2022-08-28T21:07:30.118Z,2.91
2022-08-28T21:10:07.177Z,2.94
2022-08-28T21:12:30.827Z,2.88
2022-08-28T21:15:01.117Z,2.89
2022-08-28T21:17:31.470Z,2.92
2022-08-28T21:20:03.180Z,2.93
2022-08-28T21:22:33.039Z,2.99
2022-08-28T21:25:02.497Z,2.94
2022-08-28T21:27:32.879Z,3.01
2022-08-28T21:30:03.192Z,3.03
2022-08-28T21:32:33.557Z,2.98
2022-08-28T21:35:03.879Z,3.02
2022-08-28T21:37:34.260Z,3
2022-08-28T21:40:04.732Z,3.05
2022-08-28T21:42:35.098Z,3.05
2022-08-28T21:45:08.495Z,3.01
2022-08-28T21:47:35.682Z,3.01
2022-08-28T21:50:06.036Z,3.07
2022-08-28T21:52:36.420Z,3.08
2022-08-28T21:55:06.771Z,3.04
2022-08-28T21:57:37.193Z,3.03
2022-08-28T22:00:07.469Z,3.08
2022-08-28T22:02:37.906Z,3.08
2022-08-28T22:05:08.206Z,3.11
2022-08-28T22:07:38.595Z,3.05
2022-08-28T22:10:08.934Z,3.13
2022-08-28T22:12:39.372Z,3.06
2022-08-28T22:15:09.680Z,3.1
2022-08-28T22:17:40.130Z,3.17
2022-08-28T22:20:10.475Z,3.32
2022-08-28T22:22:40.787Z,3.31
2022-08-28T22:25:11.117Z,3.53
2022-08-28T22:27:41.576Z,3.43
2022-08-28T22:30:11.839Z,3.46
2022-08-28T22:32:42.331Z,3.39
2022-08-28T22:35:12.552Z,3.32
2022-08-28T22:37:42.951Z,3.17
2022-08-28T22:40:13.782Z,3.13
2022-08-28T22:42:43.669Z,3.1
2022-08-28T22:45:13.968Z,3.16
2022-08-28T22:47:44.361Z,3.08
2022-08-28T22:50:14.737Z,3.18
2022-08-28T22:52:45.246Z,3.21
2022-08-28T22:55:15.448Z,3.19
2022-08-28T22:57:45.888Z,3.16
2022-08-28T23:00:16.213Z,3.17
2022-08-28T23:02:46.638Z,3.29
2022-08-28T23:05:17.039Z,3.25
2022-08-28T23:07:47.366Z,3.29
2022-08-28T23:10:17.680Z,3.23
2022-08-28T23:12:48.091Z,3.29
2022-08-28T23:15:18.432Z,3.32
2022-08-28T23:17:48.984Z,3.28
2022-08-28T23:20:19.145Z,3.35
2022-08-28T23:22:49.525Z,3.28
2022-08-28T23:25:19.949Z,3.28
2022-08-28T23:27:50.271Z,3.23
2022-08-28T23:30:20.590Z,3.17
2022-08-28T23:32:50.981Z,3.2
2022-08-28T23:35:21.331Z,3.23
2022-08-28T23:37:52.024Z,3.21
2022-08-28T23:40:22.127Z,3.22
2022-08-28T23:42:52.443Z,3.29
2022-08-28T23:45:22.522Z,3.25
2022-08-28T23:47:52.911Z,3.41
2022-08-28T23:50:23.279Z,3.26
2022-08-28T23:52:53.640Z,3.26
2022-08-28T23:55:23.978Z,3.34
2022-08-28T23:57:54.411Z,3.34
